Carnival Victory — 3FFL8 — position and weather

sailwx.info

Track history (hours):
 
Tides and Currents Weather Stations Pressure Air Temp Water Temp Dewpoint Dewpoint Depression Visibility Wind Speed Wind Dir Waves Ship Positions

Carnival Victory

Operator: Carnival Cruise Lines

Last reported at 2017-Aug-19 10:00 UTC. Time now 2017-Aug-20 13:40 UTC.
Position N 25°30' W 077°24'.

Type: Passenger vessel. MMSI: 355263000.

Wind from 310 at 17 knots

Barometer 1014.8 mb
Air temperature 27.0 ° C
Visibility: greater than 5.4 NM
Dewpoint 24.3 ° C
Water temperature 31.0 ° C

Date/timePositionNaut miles runAvg speedWind from/ knotsBaromVisibWave heightAir tempDewpointWater temp
2017-Aug-19 10:00N 25°30' W 077°24'10013.1 310 / 171014.8 5.4 27.024.331.0
2017-Aug-19 02:20N 26°17' W 079°02'413.0
2017-Aug-19 02:00N 26°18' W 079°07'613.2
2017-Aug-19 01:30N 26°15' W 079°13'713.7
2017-Aug-19 01:00N 26°11' W 079°20'714.0
2017-Aug-19 00:30N 26°08' W 079°26'714.6
2017-Aug-19 00:00N 26°03' W 079°32'714.6
2017-Aug-18 23:30N 25°59' W 079°39'714.7
2017-Aug-18 23:00N 25°56' W 079°47'715.0
2017-Aug-18 22:30N 25°52' W 079°54'715.0
2017-Aug-18 22:01N 25°48' W 080°01'612.3
2017-Aug-18 21:30N 25°45' W 080°07'3 6.7
2017-Aug-18 21:00N 25°47' W 080°10'0 0.2
2017-Aug-18 20:30N 25°47' W 080°10'0 0.0
2017-Aug-18 20:00N 25°47' W 080°10'0 0.0
2017-Aug-18 19:30N 25°47' W 080°10'0 0.0
2017-Aug-18 19:00N 25°47' W 080°10'0 0.0
2017-Aug-18 18:30N 25°47' W 080°10'0 0.0
2017-Aug-18 17:54N 25°47' W 080°10'0 0.0
2017-Aug-18 17:30N 25°47' W 080°10'0 0.0
2017-Aug-18 17:00N 25°47' W 080°10'0 0.0
2017-Aug-18 16:30N 25°47' W 080°10'0 0.0
2017-Aug-18 16:00N 25°47' W 080°10'0 0.0
2017-Aug-18 15:30N 25°47' W 080°10'0 0.0
2017-Aug-18 15:00N 25°47' W 080°10'0 0.0
2017-Aug-18 14:30N 25°47' W 080°10'0 0.0
2017-Aug-18 13:27N 25°47' W 080°10'0 0.0
2017-Aug-18 12:57N 25°47' W 080°10'0 0.0
2017-Aug-18 12:24N 25°47' W 080°10'0 0.0
2017-Aug-18 11:54N 25°47' W 080°10'0 0.0
2017-Aug-18 11:30N 25°47' W 080°10'0 0.0
2017-Aug-18 10:57N 25°47' W 080°10'1 1.1
2017-Aug-18 10:31N 25°47' W 080°10'4 8.8
2017-Aug-18 10:01N 25°46' W 080°05'510.1
2017-Aug-18 09:30N 25°46' W 079°59'511.0
2017-Aug-18 09:00N 25°42' W 079°55'714.7
2017-Aug-18 08:30N 25°34' W 079°55'815.8
2017-Aug-18 08:00N 25°27' W 079°54'815.7
2017-Aug-18 07:30N 25°19' W 079°56'16116.9
2017-Aug-17 22:00N 23°36' W 082°12'20917.4 220 / 151016.210.8 29.026.231.4
2017-Aug-17 10:00N 21°54' W 085°30'10817.6 200 / 281015.7 5.4 29.026.331.0
2017-Aug-17 03:51N 20°39' W 086°54'618.1
2017-Aug-17 03:31N 20°35' W 086°58'612.0
2017-Aug-17 03:01N 20°29' W 086°59'0 0.3
2017-Aug-17 02:29N 20°29' W 086°59'0 0.0
2017-Aug-17 01:59N 20°29' W 086°59'0 0.0
2017-Aug-17 01:29N 20°29' W 086°59'0 0.0
2017-Aug-17 00:59N 20°29' W 086°59'0 0.0
2017-Aug-17 00:29N 20°29' W 086°59'0 0.0
2017-Aug-16 23:59N 20°29' W 086°59'0 0.0
2017-Aug-16 23:29N 20°29' W 086°59'0 0.0
2017-Aug-16 22:59N 20°29' W 086°59'0 0.0
2017-Aug-16 22:29N 20°29' W 086°59'0 0.0
2017-Aug-16 21:59N 20°29' W 086°59'0 0.0
2017-Aug-16 21:29N 20°29' W 086°59'0 0.0
2017-Aug-16 20:59N 20°29' W 086°59'0 0.0
2017-Aug-16 20:29N 20°29' W 086°59'0 0.0
2017-Aug-16 19:59N 20°29' W 086°59'0 0.0
2017-Aug-16 19:29N 20°29' W 086°59'0 0.0
2017-Aug-16 18:59N 20°29' W 086°59'0 0.0
2017-Aug-16 18:29N 20°29' W 086°59'0 0.0
2017-Aug-16 17:56N 20°29' W 086°59'0 0.0
2017-Aug-16 17:29N 20°29' W 086°59'0 0.0
2017-Aug-16 16:59N 20°29' W 086°59'0 0.0
2017-Aug-16 16:29N 20°29' W 086°59'2 3.6
2017-Aug-16 16:01N 20°30' W 086°59'10617.6
2017-Aug-16 10:00N 21°36' W 085°30'36711.1 010 / 191015.5 5.4 29.025.031.0
2017-Aug-15 00:56N 25°03' W 079°60'512.3
2017-Aug-15 00:30N 25°08' W 079°60'611.8
2017-Aug-15 00:00N 25°14' W 079°59'612.8
2017-Aug-14 23:30N 25°20' W 079°56'612.6
2017-Aug-14 23:00N 25°26' W 079°55'612.7
2017-Aug-14 22:31N 25°33' W 079°55'612.8
2017-Aug-14 22:00N 25°39' W 079°55'713.1
2017-Aug-14 21:30N 25°44' W 080°00'510.7
2017-Aug-14 21:00N 25°46' W 080°06'4 8.1
2017-Aug-14 20:31N 25°47' W 080°10'0 0.0
2017-Aug-14 19:54N 25°47' W 080°10'0 0.0
2017-Aug-14 19:27N 25°47' W 080°10'0 0.0
2017-Aug-14 18:57N 25°47' W 080°10'0 0.0
2017-Aug-14 18:31N 25°47' W 080°10'0 0.0
2017-Aug-14 17:57N 25°47' W 080°10'0 0.0
2017-Aug-14 17:31N 25°47' W 080°10'0 0.0
2017-Aug-14 17:00N 25°47' W 080°10'0 0.0
2017-Aug-14 16:27N 25°47' W 080°10'0 0.0
2017-Aug-14 15:57N 25°47' W 080°10'0 0.0
2017-Aug-14 15:27N 25°47' W 080°10'0 0.0
2017-Aug-14 15:00N 25°47' W 080°10'0 0.0
2017-Aug-14 14:31N 25°47' W 080°10'0 0.0
2017-Aug-14 14:00N 25°47' W 080°10'0 0.0
2017-Aug-14 13:30N 25°47' W 080°10'0 0.0
2017-Aug-14 13:00N 25°47' W 080°10'0 0.0
2017-Aug-14 12:27N 25°47' W 080°10'0 0.0
2017-Aug-14 12:00N 25°47' W 080°10'0 0.0
2017-Aug-14 11:30N 25°47' W 080°10'0 0.0
2017-Aug-14 11:00N 25°47' W 080°10'0 0.4
2017-Aug-14 10:30N 25°47' W 080°10'1 1.8
2017-Aug-14 10:00N 25°46' W 080°09'510.1
2017-Aug-14 09:30N 25°46' W 080°04'4 7.2
2017-Aug-14 09:00N 25°49' W 080°01'4 8.9
2017-Aug-14 08:30N 25°50' W 079°56'4 8.2
2017-Aug-14 08:00N 25°52' W 079°52'4 7.8
2017-Aug-14 07:30N 25°55' W 079°49'4 7.6
2017-Aug-14 07:00N 25°57' W 079°45'4 7.3
2017-Aug-14 06:30N 25°59' W 079°42'4 7.5
2017-Aug-14 06:00N 26°01' W 079°39'4 7.4
2017-Aug-14 05:30N 26°03' W 079°36'4 7.6
2017-Aug-14 05:00N 26°06' W 079°32'4 7.6
2017-Aug-14 04:30N 26°09' W 079°29'4 8.1
2017-Aug-14 04:00N 26°10' W 079°25'4 7.7
2017-Aug-14 03:30N 26°14' W 079°23'4 8.0
2017-Aug-14 03:00N 26°18' W 079°22'5 9.1
2017-Aug-14 02:30N 26°19' W 079°17'510.2
2017-Aug-14 01:59N 26°19' W 079°11'108 2.7
2017-Aug-12 10:00N 25°30' W 077°24'10413.0 280 / 151016.0 28.023.931.0
2017-Aug-12 01:59N 26°18' W 079°07'613.1
2017-Aug-12 01:30N 26°15' W 079°13'713.5
2017-Aug-12 01:00N 26°11' W 079°19'714.1
2017-Aug-12 00:30N 26°08' W 079°26'713.9
2017-Aug-12 00:00N 26°04' W 079°33'713.0
2017-Aug-11 23:30N 26°02' W 079°39'713.9
2017-Aug-11 23:00N 25°58' W 079°46'714.6
2017-Aug-11 22:31N 25°55' W 079°53'715.0
2017-Aug-11 22:01N 25°49' W 079°59'612.4
2017-Aug-11 21:30N 25°46' W 080°05'5 9.6
2017-Aug-11 21:00N 25°47' W 080°10'0 0.4
2017-Aug-11 20:20N 25°47' W 080°10'0 0.0
2017-Aug-11 19:52N 25°47' W 080°10'0 0.0
2017-Aug-11 19:28N 25°47' W 080°10'0 0.0
2017-Aug-11 18:55N 25°47' W 080°10'0 0.0
2017-Aug-11 18:28N 25°47' W 080°10'0 0.0
2017-Aug-11 17:58N 25°47' W 080°10'0 0.0
2017-Aug-11 17:25N 25°47' W 080°10'0 0.0
2017-Aug-11 16:58N 25°47' W 080°10'0 0.0
2017-Aug-11 16:25N 25°47' W 080°10'0 0.0
2017-Aug-11 15:52N 25°47' W 080°10'0 0.0
2017-Aug-11 15:25N 25°47' W 080°10'0 0.0
2017-Aug-11 14:55N 25°47' W 080°10'0 0.0
2017-Aug-11 14:28N 25°47' W 080°10'0 0.0
2017-Aug-11 13:28N 25°47' W 080°10'0 0.0
2017-Aug-11 12:58N 25°47' W 080°10'0 0.0
2017-Aug-11 12:28N 25°47' W 080°10'0 0.0
2017-Aug-11 11:58N 25°47' W 080°10'0 0.0
2017-Aug-11 11:28N 25°47' W 080°10'0 0.0
2017-Aug-11 10:58N 25°47' W 080°10'1 1.9
2017-Aug-11 10:30N 25°46' W 080°09'5 9.5
2017-Aug-11 10:00N 25°46' W 080°04'510.0
2017-Aug-11 09:30N 25°45' W 079°59'612.5
2017-Aug-11 09:01N 25°40' W 079°55'815.5
2017-Aug-11 08:31N 25°32' W 079°55'816.1
2017-Aug-11 08:01N 25°24' W 079°55'34016.2
2017-Aug-10 11:00N 22°18' W 085°06'13917.6 200 / 181016.310.8 28.025.331.0
2017-Aug-10 03:05N 20°41' W 086°53'220.1
2017-Aug-10 03:00N 20°40' W 086°54'918.7
2017-Aug-10 02:30N 20°32' W 086°60'3 6.0
2017-Aug-10 01:57N 20°29' W 086°59'0 0.0
2017-Aug-10 01:30N 20°29' W 086°59'0 0.0
2017-Aug-10 01:00N 20°29' W 086°59'0 0.0
2017-Aug-10 00:30N 20°29' W 086°59'0 0.0
2017-Aug-10 00:00N 20°29' W 086°59'0 0.0
2017-Aug-09 23:30N 20°29' W 086°59'0 0.0
2017-Aug-09 23:00N 20°29' W 086°59'0 0.0
2017-Aug-09 22:30N 20°29' W 086°59'0 0.0
2017-Aug-09 22:00N 20°29' W 086°59'0 0.0
2017-Aug-09 21:24N 20°29' W 086°59'0 0.0
2017-Aug-09 20:57N 20°29' W 086°59'0 0.0
2017-Aug-09 20:30N 20°29' W 086°59'0 0.0
2017-Aug-09 20:00N 20°29' W 086°59'0 0.0
2017-Aug-09 19:30N 20°29' W 086°59'0 0.0
2017-Aug-09 18:57N 20°29' W 086°59'0 0.0
2017-Aug-09 18:30N 20°29' W 086°59'0 0.0
2017-Aug-09 18:00N 20°29' W 086°59'0 0.0
2017-Aug-09 17:24N 20°29' W 086°59'0 0.0
2017-Aug-09 17:00N 20°29' W 086°59'0 0.0
2017-Aug-09 16:30N 20°29' W 086°59'0 0.0
2017-Aug-09 15:57N 20°29' W 086°59'0 0.9
2017-Aug-09 15:30N 20°29' W 086°59'510.0
2017-Aug-09 15:00N 20°34' W 086°59'8320.7
2017-Aug-09 11:00N 21°24' W 085°48'   010 / 291013.010.8 28.026.730.0
Track history (hours):
 
Tides and Currents Weather Stations Pressure Air Temp Water Temp Dewpoint Dewpoint Depression Visibility Wind Speed Wind Dir Waves Ship Positions

Carnival Victory

Operator: Carnival Cruise Lines

Last reported at 2017-Aug-19 10:00 UTC. Time now 2017-Aug-20 13:40 UTC.
Position N 25°30' W 077°24'.

Type: Passenger vessel. MMSI: 355263000.

Wind from 310 at 17 knots

Barometer 1014.8 mb
Air temperature 27.0 ° C
Visibility: greater than 5.4 NM
Dewpoint 24.3 ° C
Water temperature 31.0 ° C

Date/timePositionNaut miles runAvg speedWind from/ knotsBaromVisibWave heightAir tempDewpointWater temp
2017-Aug-19 10:00N 25°30' W 077°24'10013.1 310 / 171014.8 5.4 27.024.331.0
2017-Aug-19 02:20N 26°17' W 079°02'413.0
2017-Aug-19 02:00N 26°18' W 079°07'613.2
2017-Aug-19 01:30N 26°15' W 079°13'713.7
2017-Aug-19 01:00N 26°11' W 079°20'714.0
2017-Aug-19 00:30N 26°08' W 079°26'714.6
2017-Aug-19 00:00N 26°03' W 079°32'714.6
2017-Aug-18 23:30N 25°59' W 079°39'714.7
2017-Aug-18 23:00N 25°56' W 079°47'715.0
2017-Aug-18 22:30N 25°52' W 079°54'715.0
2017-Aug-18 22:01N 25°48' W 080°01'612.3
2017-Aug-18 21:30N 25°45' W 080°07'3 6.7
2017-Aug-18 21:00N 25°47' W 080°10'0 0.2
2017-Aug-18 20:30N 25°47' W 080°10'0 0.0
2017-Aug-18 20:00N 25°47' W 080°10'0 0.0
2017-Aug-18 19:30N 25°47' W 080°10'0 0.0
2017-Aug-18 19:00N 25°47' W 080°10'0 0.0
2017-Aug-18 18:30N 25°47' W 080°10'0 0.0
2017-Aug-18 17:54N 25°47' W 080°10'0 0.0
2017-Aug-18 17:30N 25°47' W 080°10'0 0.0
2017-Aug-18 17:00N 25°47' W 080°10'0 0.0
2017-Aug-18 16:30N 25°47' W 080°10'0 0.0
2017-Aug-18 16:00N 25°47' W 080°10'0 0.0
2017-Aug-18 15:30N 25°47' W 080°10'0 0.0
2017-Aug-18 15:00N 25°47' W 080°10'0 0.0
2017-Aug-18 14:30N 25°47' W 080°10'0 0.0
2017-Aug-18 13:27N 25°47' W 080°10'0 0.0
2017-Aug-18 12:57N 25°47' W 080°10'0 0.0
2017-Aug-18 12:24N 25°47' W 080°10'0 0.0
2017-Aug-18 11:54N 25°47' W 080°10'0 0.0
2017-Aug-18 11:30N 25°47' W 080°10'0 0.0
2017-Aug-18 10:57N 25°47' W 080°10'1 1.1
2017-Aug-18 10:31N 25°47' W 080°10'4 8.8
2017-Aug-18 10:01N 25°46' W 080°05'510.1
2017-Aug-18 09:30N 25°46' W 079°59'511.0
2017-Aug-18 09:00N 25°42' W 079°55'714.7
2017-Aug-18 08:30N 25°34' W 079°55'815.8
2017-Aug-18 08:00N 25°27' W 079°54'815.7
2017-Aug-18 07:30N 25°19' W 079°56'16116.9
2017-Aug-17 22:00N 23°36' W 082°12'20917.4 220 / 151016.210.8 29.026.231.4
2017-Aug-17 10:00N 21°54' W 085°30'10817.6 200 / 281015.7 5.4 29.026.331.0
2017-Aug-17 03:51N 20°39' W 086°54'618.1
2017-Aug-17 03:31N 20°35' W 086°58'612.0
2017-Aug-17 03:01N 20°29' W 086°59'0 0.3
2017-Aug-17 02:29N 20°29' W 086°59'0 0.0
2017-Aug-17 01:59N 20°29' W 086°59'0 0.0
2017-Aug-17 01:29N 20°29' W 086°59'0 0.0
2017-Aug-17 00:59N 20°29' W 086°59'0 0.0
2017-Aug-17 00:29N 20°29' W 086°59'0 0.0
2017-Aug-16 23:59N 20°29' W 086°59'0 0.0
2017-Aug-16 23:29N 20°29' W 086°59'0 0.0
2017-Aug-16 22:59N 20°29' W 086°59'0 0.0
2017-Aug-16 22:29N 20°29' W 086°59'0 0.0
2017-Aug-16 21:59N 20°29' W 086°59'0 0.0
2017-Aug-16 21:29N 20°29' W 086°59'0 0.0
2017-Aug-16 20:59N 20°29' W 086°59'0 0.0
2017-Aug-16 20:29N 20°29' W 086°59'0 0.0
2017-Aug-16 19:59N 20°29' W 086°59'0 0.0
2017-Aug-16 19:29N 20°29' W 086°59'0 0.0
2017-Aug-16 18:59N 20°29' W 086°59'0 0.0
2017-Aug-16 18:29N 20°29' W 086°59'0 0.0
2017-Aug-16 17:56N 20°29' W 086°59'0 0.0
2017-Aug-16 17:29N 20°29' W 086°59'0 0.0
2017-Aug-16 16:59N 20°29' W 086°59'0 0.0
2017-Aug-16 16:29N 20°29' W 086°59'2 3.6
2017-Aug-16 16:01N 20°30' W 086°59'10617.6
2017-Aug-16 10:00N 21°36' W 085°30'36711.1 010 / 191015.5 5.4 29.025.031.0
2017-Aug-15 00:56N 25°03' W 079°60'512.3
2017-Aug-15 00:30N 25°08' W 079°60'611.8
2017-Aug-15 00:00N 25°14' W 079°59'612.8
2017-Aug-14 23:30N 25°20' W 079°56'612.6
2017-Aug-14 23:00N 25°26' W 079°55'612.7
2017-Aug-14 22:31N 25°33' W 079°55'612.8
2017-Aug-14 22:00N 25°39' W 079°55'713.1
2017-Aug-14 21:30N 25°44' W 080°00'510.7
2017-Aug-14 21:00N 25°46' W 080°06'4 8.1
2017-Aug-14 20:31N 25°47' W 080°10'0 0.0
2017-Aug-14 19:54N 25°47' W 080°10'0 0.0
2017-Aug-14 19:27N 25°47' W 080°10'0 0.0
2017-Aug-14 18:57N 25°47' W 080°10'0 0.0
2017-Aug-14 18:31N 25°47' W 080°10'0 0.0
2017-Aug-14 17:57N 25°47' W 080°10'0 0.0
2017-Aug-14 17:31N 25°47' W 080°10'0 0.0
2017-Aug-14 17:00N 25°47' W 080°10'0 0.0
2017-Aug-14 16:27N 25°47' W 080°10'0 0.0
2017-Aug-14 15:57N 25°47' W 080°10'0 0.0
2017-Aug-14 15:27N 25°47' W 080°10'0 0.0
2017-Aug-14 15:00N 25°47' W 080°10'0 0.0
2017-Aug-14 14:31N 25°47' W 080°10'0 0.0
2017-Aug-14 14:00N 25°47' W 080°10'0 0.0
2017-Aug-14 13:30N 25°47' W 080°10'0 0.0
2017-Aug-14 13:00N 25°47' W 080°10'0 0.0
2017-Aug-14 12:27N 25°47' W 080°10'0 0.0
2017-Aug-14 12:00N 25°47' W 080°10'0 0.0
2017-Aug-14 11:30N 25°47' W 080°10'0 0.0
2017-Aug-14 11:00N 25°47' W 080°10'0 0.4
2017-Aug-14 10:30N 25°47' W 080°10'1 1.8
2017-Aug-14 10:00N 25°46' W 080°09'510.1
2017-Aug-14 09:30N 25°46' W 080°04'4 7.2
2017-Aug-14 09:00N 25°49' W 080°01'4 8.9
2017-Aug-14 08:30N 25°50' W 079°56'4 8.2
2017-Aug-14 08:00N 25°52' W 079°52'4 7.8
2017-Aug-14 07:30N 25°55' W 079°49'4 7.6
2017-Aug-14 07:00N 25°57' W 079°45'4 7.3
2017-Aug-14 06:30N 25°59' W 079°42'4 7.5
2017-Aug-14 06:00N 26°01' W 079°39'4 7.4
2017-Aug-14 05:30N 26°03' W 079°36'4 7.6
2017-Aug-14 05:00N 26°06' W 079°32'4 7.6
2017-Aug-14 04:30N 26°09' W 079°29'4 8.1
2017-Aug-14 04:00N 26°10' W 079°25'4 7.7
2017-Aug-14 03:30N 26°14' W 079°23'4 8.0
2017-Aug-14 03:00N 26°18' W 079°22'5 9.1
2017-Aug-14 02:30N 26°19' W 079°17'510.2
2017-Aug-14 01:59N 26°19' W 079°11'108 2.7
2017-Aug-12 10:00N 25°30' W 077°24'10413.0 280 / 151016.0 28.023.931.0
2017-Aug-12 01:59N 26°18' W 079°07'613.1
2017-Aug-12 01:30N 26°15' W 079°13'713.5
2017-Aug-12 01:00N 26°11' W 079°19'714.1
2017-Aug-12 00:30N 26°08' W 079°26'713.9
2017-Aug-12 00:00N 26°04' W 079°33'713.0
2017-Aug-11 23:30N 26°02' W 079°39'713.9
2017-Aug-11 23:00N 25°58' W 079°46'714.6
2017-Aug-11 22:31N 25°55' W 079°53'715.0
2017-Aug-11 22:01N 25°49' W 079°59'612.4
2017-Aug-11 21:30N 25°46' W 080°05'5 9.6
2017-Aug-11 21:00N 25°47' W 080°10'0 0.4
2017-Aug-11 20:20N 25°47' W 080°10'0 0.0
2017-Aug-11 19:52N 25°47' W 080°10'0 0.0
2017-Aug-11 19:28N 25°47' W 080°10'0 0.0
2017-Aug-11 18:55N 25°47' W 080°10'0 0.0
2017-Aug-11 18:28N 25°47' W 080°10'0 0.0
2017-Aug-11 17:58N 25°47' W 080°10'0 0.0
2017-Aug-11 17:25N 25°47' W 080°10'0 0.0
2017-Aug-11 16:58N 25°47' W 080°10'0 0.0
2017-Aug-11 16:25N 25°47' W 080°10'0 0.0
2017-Aug-11 15:52N 25°47' W 080°10'0 0.0
2017-Aug-11 15:25N 25°47' W 080°10'0 0.0
2017-Aug-11 14:55N 25°47' W 080°10'0 0.0
2017-Aug-11 14:28N 25°47' W 080°10'0 0.0
2017-Aug-11 13:28N 25°47' W 080°10'0 0.0
2017-Aug-11 12:58N 25°47' W 080°10'0 0.0
2017-Aug-11 12:28N 25°47' W 080°10'0 0.0
2017-Aug-11 11:58N 25°47' W 080°10'0 0.0
2017-Aug-11 11:28N 25°47' W 080°10'0 0.0
2017-Aug-11 10:58N 25°47' W 080°10'1 1.9
2017-Aug-11 10:30N 25°46' W 080°09'5 9.5
2017-Aug-11 10:00N 25°46' W 080°04'510.0
2017-Aug-11 09:30N 25°45' W 079°59'612.5
2017-Aug-11 09:01N 25°40' W 079°55'815.5
2017-Aug-11 08:31N 25°32' W 079°55'816.1
2017-Aug-11 08:01N 25°24' W 079°55'34016.2
2017-Aug-10 11:00N 22°18' W 085°06'13917.6 200 / 181016.310.8 28.025.331.0
2017-Aug-10 03:05N 20°41' W 086°53'220.1
2017-Aug-10 03:00N 20°40' W 086°54'918.7
2017-Aug-10 02:30N 20°32' W 086°60'3 6.0
2017-Aug-10 01:57N 20°29' W 086°59'0 0.0
2017-Aug-10 01:30N 20°29' W 086°59'0 0.0
2017-Aug-10 01:00N 20°29' W 086°59'0 0.0
2017-Aug-10 00:30N 20°29' W 086°59'0 0.0
2017-Aug-10 00:00N 20°29' W 086°59'0 0.0
2017-Aug-09 23:30N 20°29' W 086°59'0 0.0
2017-Aug-09 23:00N 20°29' W 086°59'0 0.0
2017-Aug-09 22:30N 20°29' W 086°59'0 0.0
2017-Aug-09 22:00N 20°29' W 086°59'0 0.0
2017-Aug-09 21:24N 20°29' W 086°59'0 0.0
2017-Aug-09 20:57N 20°29' W 086°59'0 0.0
2017-Aug-09 20:30N 20°29' W 086°59'0 0.0
2017-Aug-09 20:00N 20°29' W 086°59'0 0.0
2017-Aug-09 19:30N 20°29' W 086°59'0 0.0
2017-Aug-09 18:57N 20°29' W 086°59'0 0.0
2017-Aug-09 18:30N 20°29' W 086°59'0 0.0
2017-Aug-09 18:00N 20°29' W 086°59'0 0.0
2017-Aug-09 17:24N 20°29' W 086°59'0 0.0
2017-Aug-09 17:00N 20°29' W 086°59'0 0.0
2017-Aug-09 16:30N 20°29' W 086°59'0 0.0
2017-Aug-09 15:57N 20°29' W 086°59'0 0.9
2017-Aug-09 15:30N 20°29' W 086°59'510.0
2017-Aug-09 15:00N 20°34' W 086°59'8320.7
2017-Aug-09 11:00N 21°24' W 085°48'   010 / 291013.010.8 28.026.730.0

Dump ship's entire track history